This is the latest recevied weather packets stored in our database for station/object EA5CH. If no packets are shown the sender has not sent any weather packets the latest 10 day(s).
| Time | Temp. | Humidity | Pressure | Rain* | Wind** | Luminosity | Snow |
|---|---|---|---|---|---|---|---|
| 1777479319 | 20° C | 79% | 1012.2 hPa | 0 mm | - | - | - |
| 1777478118 | 20.56° C | 77% | 1012 hPa | 0 mm | - | - | - |
| 1777477518 | 21.11° C | 76% | 1012.2 hPa | 0 mm | - | - | - |
| 1777475118 | 21.67° C | 73% | 1012 hPa | 0 mm | - | - | - |
| 1777474518 | 21.67° C | 74% | 1011.9 hPa | 0 mm | - | - | - |
| 1777472118 | 22.22° C | 69% | 1012.1 hPa | 0 mm | - | - | - |
| 1777467918 | 22.78° C | 68% | 1012.4 hPa | 0 mm | - | - | - |
| 1777464319 | 21.67° C | 70% | 1012.7 hPa | 0 mm | - | - | - |
| 1777458938 | 21.11° C | 67% | 1012.7 hPa | 0 mm | - | - | - |
| 1777458318 | 21.11° C | 69% | 1012.8 hPa | 0 mm | - | - | - |
| 1777457118 | 21.11° C | 68% | 1012.9 hPa | 0 mm | - | - | - |
| 1777456519 | 21.11° C | 68% | 1012.9 hPa | 0 mm | - | - | - |
| 1777451127 | 20.56° C | 72% | 1012.6 hPa | 0 mm | - | - | - |
| 1777450518 | 20° C | 73% | 1012.6 hPa | 0 mm | - | - | - |
| 1777448718 | 19.44° C | 77% | 1012.3 hPa | 0 mm | - | - | - |
| 1777442139 | 16.67° C | 79% | 1011 hPa | 0 mm | - | - | - |
| 1777438518 | 15.56° C | 83% | 1010.6 hPa | 0 mm | - | - | - |
| 1777433718 | 16.11° C | 84% | 1010.5 hPa | 0 mm | - | - | - |
| 1777429518 | 16.67° C | 87% | 1010.7 hPa | 0 mm | - | - | - |
| 1777425938 | 17.22° C | 88% | 1011.1 hPa | 0 mm | - | - | - |
| 1777422918 | 17.78° C | 82% | 1011.4 hPa | 0 mm | - | - | - |
| 1777419319 | 18.89° C | 72% | 1010.8 hPa | 0 mm | - | - | - |
| 1777410918 | 17.22° C | 83% | 1012.5 hPa | 0 mm | - | - | - |
| 1777410319 | 17.78° C | 82% | 1012.5 hPa | 0 mm | - | - | - |
| 1777409718 | 18.33° C | 83% | 1012.5 hPa | 0 mm | - | - | - |
* Rain latest hour (hover to see other rain measurements)
** Current wind speed in m/s (hover to see current wind gust speed)